Time;durP1;ratioP1;P1;durP2;ratioP2;P2;SDS_P1;SDS_P2;PMS_P1;PMS_P2;Temp;Humidity;BMP_temperature;BMP_pressure;BME280_temperature;BME280_humidity;BME280_pressure;Samples;Min_cycle;Max_cycle;Signal;HPM_P1;HPM_P2
2022/05/02 00:00:45;;;;;;;7.07;6.38;;;13.60;80.40;;;;;;6151050;23;20711;-79
2022/05/02 00:03:12;;;;;;;7.68;6.97;;;13.50;81.70;;;;;;6152265;23;20429;-79
2022/05/02 00:05:39;;;;;;;6.93;5.88;;;13.50;82.20;;;;;;6174641;23;20408;-79
2022/05/02 00:08:06;;;;;;;6.15;5.10;;;13.50;82.40;;;;;;6175185;23;20370;-79
2022/05/02 00:10:33;;;;;;;6.22;5.10;;;13.50;80.80;;;;;;6174086;23;20370;-78
2022/05/02 00:13:01;;;;;;;7.40;5.18;;;13.50;80.30;;;;;;6175899;23;20366;-78
2022/05/02 00:15:29;;;;;;;5.25;4.75;;;13.50;81.60;;;;;;6151484;23;20383;-81
2022/05/02 00:17:56;;;;;;;6.93;6.03;;;13.50;81.30;;;;;;6175407;23;20374;-78
2022/05/02 00:20:30;;;;;;;6.78;6.18;;;13.40;83.40;;;;;;6175845;23;20381;-81
2022/05/02 00:22:59;;;;;;;6.63;5.80;;;13.30;83.60;;;;;;6175143;23;20370;-81
2022/05/02 00:25:27;;;;;;;7.13;6.43;;;13.30;83.40;;;;;;6152355;23;20381;-78
2022/05/02 00:27:54;;;;;;;6.20;5.70;;;13.30;84.90;;;;;;6174455;23;20362;-78
2022/05/02 00:30:21;;;;;;;6.57;5.82;;;13.30;83.70;;;;;;6175949;23;20429;-81
2022/05/02 00:32:48;;;;;;;7.15;6.00;;;13.40;83.60;;;;;;6149715;23;20370;-81
2022/05/02 00:35:15;;;;;;;5.90;5.30;;;13.40;83.90;;;;;;6176035;23;20436;-79
2022/05/02 00:37:43;;;;;;;6.70;6.03;;;13.40;83.60;;;;;;6174440;23;20433;-80
2022/05/02 00:40:12;;;;;;;6.20;5.70;;;13.40;83.70;;;;;;6175345;23;20382;-80
2022/05/02 00:42:42;;;;;;;6.25;5.75;;;13.40;83.90;;;;;;6174145;23;20378;-81
2022/05/02 00:45:11;;;;;;;6.70;6.10;;;13.30;84.60;;;;;;6175481;23;20425;-80
2022/05/02 00:47:38;;;;;;;7.68;7.00;;;13.30;84.50;;;;;;6173923;23;20405;-78
2022/05/02 00:50:07;;;;;;;9.35;6.97;;;13.20;86.20;;;;;;6175057;23;20366;-78
2022/05/02 00:52:34;;;;;;;6.40;5.80;;;13.20;86.60;;;;;;6174173;23;20681;-81
2022/05/02 00:55:03;;;;;;;7.38;6.18;;;13.20;85.60;;;;;;6152113;23;20428;-81
2022/05/02 00:57:32;;;;;;;6.80;6.10;;;13.30;85.40;;;;;;6174824;23;20449;-79
2022/05/02 00:59:59;;;;;;;6.95;6.25;;;13.40;85.50;;;;;;6150730;23;20677;-80
2022/05/02 01:02:26;;;;;;;6.30;5.70;;;13.40;85.00;;;;;;6175824;23;20378;-81
2022/05/02 01:04:53;;;;;;;6.10;5.60;;;13.40;84.80;;;;;;6125169;23;20403;-78
2022/05/02 01:07:20;;;;;;;6.72;5.20;;;13.50;83.20;;;;;;6154089;23;20375;-81
2022/05/02 01:09:50;;;;;;;5.68;5.15;;;13.50;82.80;;;;;;6171333;23;20847;-78
2022/05/02 01:12:22;;;;;;;5.22;4.78;;;13.40;83.10;;;;;;6130462;23;20378;-78
2022/05/02 01:14:51;;;;;;;5.45;4.95;;;13.40;83.20;;;;;;6171918;23;20370;-77
2022/05/02 01:17:19;;;;;;;6.03;5.50;;;13.40;83.70;;;;;;6175607;23;20456;-81
2022/05/02 01:19:46;;;;;;;5.82;5.40;;;13.30;84.20;;;;;;6173689;23;20386;-80
2022/05/02 01:22:13;;;;;;;6.15;5.55;;;13.30;84.10;;;;;;6174897;23;20397;-77
2022/05/02 01:24:42;;;;;;;5.85;5.25;;;13.30;83.80;;;;;;6173776;23;20378;-78
2022/05/02 01:27:11;;;;;;;6.65;6.10;;;13.20;84.40;;;;;;6174740;23;20374;-80
2022/05/02 01:29:42;;;;;;;6.43;5.93;;;13.20;85.10;;;;;;6174511;23;20501;-77
2022/05/02 01:32:11;;;;;;;6.13;5.63;;;13.20;84.70;;;;;;6175010;23;20806;-79
2022/05/02 01:34:42;;;;;;;6.82;5.93;;;13.20;84.70;;;;;;6174631;23;20761;-79
2022/05/02 01:37:11;;;;;;;6.40;5.80;;;13.10;85.60;;;;;;6175291;23;20427;-79
2022/05/02 01:39:39;;;;;;;6.85;6.18;;;13.10;85.40;;;;;;6173982;23;20407;-80
2022/05/02 01:42:07;;;;;;;6.32;5.75;;;13.00;85.60;;;;;;6175780;23;20370;-79
2022/05/02 01:44:35;;;;;;;6.47;5.87;;;13.00;85.60;;;;;;6175737;23;20435;-79
2022/05/02 01:47:03;;;;;;;6.50;6.00;;;13.00;85.20;;;;;;6174005;23;20370;-78
2022/05/02 01:49:30;;;;;;;7.13;6.22;;;13.00;86.20;;;;;;6151244;23;20386;-78
2022/05/02 01:52:00;;;;;;;6.43;5.93;;;13.00;85.50;;;;;;6173921;23;20436;-80
2022/05/02 01:54:27;;;;;;;6.03;5.53;;;13.00;85.20;;;;;;6175047;23;20378;-77
2022/05/02 01:56:56;;;;;;;6.65;6.13;;;12.90;85.40;;;;;;6174505;23;20390;-78
2022/05/02 01:59:23;;;;;;;6.65;6.10;;;12.90;85.60;;;;;;6176664;23;20366;-79
2022/05/02 02:01:50;;;;;;;6.50;5.97;;;12.90;85.40;;;;;;6175945;23;20381;-78
2022/05/02 02:07:03;;;;;;;6.28;5.68;;;12.80;84.70;;;;;;6152927;23;20417;-80
2022/05/02 02:09:30;;;;;;;6.60;6.00;;;12.80;84.30;;;;;;6177173;23;20378;-80
2022/05/02 02:11:57;;;;;;;6.47;5.95;;;12.80;84.00;;;;;;6175550;23;20425;-78
2022/05/02 02:14:25;;;;;;;6.35;5.75;;;12.80;83.70;;;;;;6176217;23;20398;-77
2022/05/02 02:16:52;;;;;;;6.15;5.65;;;12.80;84.30;;;;;;6175208;23;20396;-80
2022/05/02 02:19:19;;;;;;;5.55;5.05;;;12.80;83.20;;;;;;6176124;23;20661;-78
2022/05/02 02:21:46;;;;;;;6.73;6.13;;;12.80;83.10;;;;;;6175875;23;20378;-77
2022/05/02 02:24:13;;;;;;;5.85;5.35;;;12.70;82.50;;;;;;6175763;23;20835;-80
2022/05/02 02:26:40;;;;;;;5.68;5.18;;;12.70;82.80;;;;;;6176581;23;20378;-80
2022/05/02 02:29:07;;;;;;;5.77;5.20;;;12.70;83.00;;;;;;6176894;23;20861;-77
2022/05/02 02:31:34;;;;;;;5.67;5.17;;;12.70;82.50;;;;;;6176201;23;20432;-77
2022/05/02 02:34:01;;;;;;;5.47;4.97;;;12.60;82.30;;;;;;6175894;23;20416;-77
2022/05/02 02:36:28;;;;;;;5.55;5.05;;;12.60;81.90;;;;;;6175009;23;20393;-77
2022/05/02 02:38:55;;;;;;;4.97;4.55;;;12.60;81.90;;;;;;6152905;23;20906;-77
2022/05/02 02:41:22;;;;;;;5.47;4.97;;;12.60;81.20;;;;;;6176475;23;20374;-80
2022/05/02 02:43:49;;;;;;;4.80;4.40;;;12.50;81.50;;;;;;6175558;23;20425;-77
2022/05/02 02:46:16;;;;;;;4.63;4.22;;;12.50;81.50;;;;;;6175902;23;20818;-80
2022/05/02 02:48:43;;;;;;;5.33;4.83;;;12.40;81.30;;;;;;6175134;23;20867;-80
2022/05/02 02:51:10;;;;;;;4.95;4.50;;;12.40;81.10;;;;;;6177576;23;20378;-78
2022/05/02 02:53:37;;;;;;;4.78;4.38;;;12.40;80.70;;;;;;6151086;23;20386;-81
2022/05/02 02:56:04;;;;;;;4.40;4.00;;;12.40;80.70;;;;;;6174935;23;20366;-80
2022/05/02 02:58:31;;;;;;;4.20;3.60;;;12.40;80.50;;;;;;6176292;23;20999;-77
2022/05/02 03:00:58;;;;;;;4.30;3.95;;;12.40;80.20;;;;;;6176332;23;20370;-80
2022/05/02 03:03:25;;;;;;;4.13;3.83;;;12.30;80.20;;;;;;6175526;23;20393;-77
2022/05/02 03:06:01;;;;;;;4.53;4.07;;;12.40;80.00;;;;;;6175275;23;20704;-77
2022/05/02 03:08:30;;;;;;;3.90;3.60;;;12.30;79.90;;;;;;6174552;23;20922;-78
2022/05/02 03:10:57;;;;;;;4.45;4.10;;;12.30;80.10;;;;;;6175073;23;20370;-80
2022/05/02 03:13:24;;;;;;;4.32;4.03;;;12.30;79.80;;;;;;6175584;23;20402;-77
2022/05/02 03:15:51;;;;;;;5.03;4.63;;;12.20;80.80;;;;;;6175033;23;20370;-80
2022/05/02 03:18:19;;;;;;;5.13;4.63;;;12.20;80.70;;;;;;6175702;23;20386;-77
2022/05/02 03:20:46;;;;;;;4.43;4.03;;;12.10;80.70;;;;;;6175256;23;20405;-80
2022/05/02 03:23:13;;;;;;;4.37;3.97;;;12.10;81.20;;;;;;6175329;23;20402;-80
2022/05/02 03:25:40;;;;;;;4.80;4.40;;;12.10;81.20;;;;;;6175516;23;20755;-77
2022/05/02 03:28:07;;;;;;;4.25;3.85;;;12.00;81.40;;;;;;6174865;23;20374;-80
2022/05/02 03:30:34;;;;;;;4.32;3.92;;;12.00;81.00;;;;;;6175454;23;20826;-77
2022/05/02 03:33:01;;;;;;;3.92;3.63;;;12.00;80.60;;;;;;6174279;23;20432;-77
2022/05/02 03:35:29;;;;;;;4.60;4.20;;;12.00;80.80;;;;;;6175495;23;20857;-80
2022/05/02 03:37:56;;;;;;;4.43;4.00;;;11.90;81.30;;;;;;6174554;23;20421;-78
2022/05/02 03:40:24;;;;;;;4.40;4.10;;;11.90;81.10;;;;;;6175301;23;20424;-80
2022/05/02 03:42:51;;;;;;;4.13;3.72;;;11.80;81.10;;;;;;6173873;23;20729;-80
2022/05/02 03:45:18;;;;;;;4.57;4.18;;;11.80;81.50;;;;;;6175669;23;20378;-76
2022/05/02 03:47:45;;;;;;;4.50;4.10;;;11.70;81.50;;;;;;6175289;23;20382;-80
2022/05/02 03:50:12;;;;;;;4.75;4.30;;;11.70;81.70;;;;;;6176003;23;20370;-79
2022/05/02 03:52:39;;;;;;;3.75;3.40;;;11.70;81.60;;;;;;6151397;23;20370;-76
2022/05/02 03:55:06;;;;;;;4.40;4.00;;;11.70;81.70;;;;;;6175588;23;20373;-76
2022/05/02 03:57:33;;;;;;;4.97;4.38;;;11.60;81.70;;;;;;6175305;23;20436;-77
2022/05/02 04:00:00;;;;;;;4.85;3.70;;;11.60;81.80;;;;;;6174147;23;20433;-78
2022/05/02 04:02:27;;;;;;;4.32;3.63;;;11.60;81.30;;;;;;6175975;23;20374;-78
2022/05/02 04:04:54;;;;;;;4.43;4.07;;;11.70;80.40;;;;;;6174610;23;20851;-80
2022/05/02 04:07:21;;;;;;;4.22;3.92;;;11.70;80.90;;;;;;6176220;23;20747;-79
2022/05/02 04:09:48;;;;;;;4.30;4.00;;;11.70;80.60;;;;;;6150852;23;20389;-80
2022/05/02 04:12:15;;;;;;;4.40;4.00;;;11.60;80.70;;;;;;6175458;23;20374;-80
2022/05/02 04:14:42;;;;;;;4.60;4.20;;;11.60;80.60;;;;;;6174337;23;20429;-80
2022/05/02 04:17:10;;;;;;;5.05;4.50;;;11.60;80.30;;;;;;6174204;23;20370;-77
2022/05/02 04:19:37;;;;;;;5.40;4.55;;;11.60;80.50;;;;;;6151792;23;20873;-78
2022/05/02 04:22:04;;;;;;;5.82;5.32;;;11.50;81.30;;;;;;6174106;23;20374;-78
2022/05/02 04:24:31;;;;;;;6.20;5.70;;;11.20;82.40;;;;;;6176123;23;20401;-80
2022/05/02 04:26:58;;;;;;;5.80;5.30;;;11.20;83.10;;;;;;6173957;23;20378;-80
2022/05/02 04:29:26;;;;;;;5.38;4.97;;;11.20;83.10;;;;;;6175505;23;20727;-80
2022/05/02 04:31:53;;;;;;;4.90;4.50;;;11.20;83.10;;;;;;6174180;23;20712;-79
2022/05/02 04:34:19;;;;;;;4.53;4.10;;;11.20;82.50;;;;;;6152394;23;20446;-78
2022/05/02 04:36:46;;;;;;;4.45;4.05;;;11.20;82.00;;;;;;6174696;23;20393;-80
2022/05/02 04:39:13;;;;;;;4.70;4.30;;;11.20;82.40;;;;;;6175272;23;20371;-79
2022/05/02 04:41:40;;;;;;;5.40;4.90;;;11.20;82.50;;;;;;6150574;23;20374;-80
2022/05/02 04:44:07;;;;;;;5.90;5.50;;;11.10;83.10;;;;;;6174728;23;20890;-77
2022/05/02 04:46:34;;;;;;;7.57;6.78;;;11.00;84.00;;;;;;6151765;23;20425;-80
2022/05/02 04:49:01;;;;;;;7.15;6.45;;;10.90;84.70;;;;;;6174127;23;20677;-81
2022/05/02 04:51:28;;;;;;;6.05;5.55;;;10.80;85.10;;;;;;6152297;23;20382;-79
2022/05/02 04:53:55;;;;;;;6.78;6.18;;;10.80;85.50;;;;;;6174199;23;20413;-77
2022/05/02 04:56:22;;;;;;;6.10;5.57;;;10.70;86.20;;;;;;6152552;23;20721;-77
2022/05/02 04:58:49;;;;;;;7.10;6.50;;;10.70;86.40;;;;;;6173725;23;20381;-81
2022/05/02 05:01:16;;;;;;;6.65;6.10;;;10.60;87.20;;;;;;6175642;23;20374;-80
2022/05/02 05:03:43;;;;;;;6.65;6.05;;;10.70;86.80;;;;;;6174883;23;20381;-76
2022/05/02 05:06:10;;;;;;;6.82;6.18;;;10.70;87.90;;;;;;6174668;23;20370;-81
2022/05/02 05:08:39;;;;;;;6.38;5.88;;;10.70;86.70;;;;;;6174556;23;20433;-80
2022/05/02 05:11:14;;;;;;;8.45;7.70;;;10.70;87.60;;;;;;6174161;23;20384;-80
2022/05/02 05:16:20;;;;;;;7.45;6.70;;;10.60;89.70;;;;;;6175371;23;20440;-77
2022/05/02 05:17:03;;;;;;;6.90;6.30;;;10.70;89.50;;;;;;6151568;23;20381;-80
2022/05/02 05:19:49;;;;;;;6.10;5.50;;;10.90;88.30;;;;;;6174274;23;20443;-80
2022/05/02 05:22:44;;;;;;;5.60;5.07;;;11.00;87.20;;;;;;6174577;23;20583;-77
2022/05/02 05:25:17;;;;;;;5.30;4.80;;;11.10;86.00;;;;;;6174510;23;20672;-80
2022/05/02 05:28:06;;;;;;;5.57;5.07;;;11.20;86.10;;;;;;6175058;23;20381;-81
2022/05/02 05:30:40;;;;;;;5.57;4.65;;;11.30;86.30;;;;;;6174174;23;20374;-80
2022/05/02 05:33:36;;;;;;;5.10;4.60;;;11.30;85.10;;;;;;6176208;23;20378;-77
2022/05/02 05:36:31;;;;;;;4.20;3.85;;;11.40;85.80;;;;;;6166038;23;20361;-79
2022/05/02 05:39:06;;;;;;;4.60;3.88;;;11.50;85.00;;;;;;6175586;23;20382;-78
2022/05/02 05:42:04;;;;;;;5.30;4.53;;;11.60;83.70;;;;;;6176916;23;20398;-80
2022/05/02 05:45:03;;;;;;;3.88;3.25;;;11.70;83.30;;;;;;6162324;23;20901;-79
2022/05/02 05:47:37;;;;;;;2.88;2.53;;;11.80;81.60;;;;;;6176081;23;20368;-78
2022/05/02 05:50:12;;;;;;;3.33;3.03;;;12.00;79.40;;;;;;6176849;23;20440;-80
2022/05/02 05:53:00;;;;;;;3.53;3.05;;;12.10;79.10;;;;;;6175556;23;20815;-79
2022/05/02 05:55:35;;;;;;;3.80;2.95;;;12.10;78.90;;;;;;6176145;23;20453;-80
2022/05/02 05:58:14;;;;;;;3.88;3.20;;;12.20;78.50;;;;;;6176664;23;20374;-77
2022/05/02 06:00:45;;;;;;;2.60;2.40;;;12.40;78.50;;;;;;6176073;23;20373;-77
2022/05/02 06:03:37;;;;;;;3.25;2.80;;;12.40;78.00;;;;;;6152789;23;20509;-78
2022/05/02 06:06:04;;;;;;;4.60;4.20;;;12.60;76.60;;;;;;6175812;23;20370;-78
2022/05/02 06:08:33;;;;;;;5.03;4.60;;;12.70;79.40;;;;;;6176228;23;20379;-78
2022/05/02 06:11:01;;;;;;;5.13;4.72;;;12.70;81.50;;;;;;6176112;23;20370;-80
2022/05/02 06:13:32;;;;;;;4.97;4.47;;;12.70;82.70;;;;;;6175951;23;20409;-80
2022/05/02 06:19:05;;;;;;;4.82;4.43;;;12.80;81.30;;;;;;6151611;23;20858;-80
2022/05/02 06:21:33;;;;;;;5.07;4.60;;;12.80;81.50;;;;;;6176267;23;20385;-77
2022/05/02 06:24:04;;;;;;;4.45;4.07;;;12.90;81.00;;;;;;6151214;23;20755;-77
2022/05/02 06:26:31;;;;;;;4.28;3.88;;;13.00;80.60;;;;;;6155720;23;20447;-79
2022/05/02 06:28:57;;;;;;;5.22;4.47;;;13.10;76.50;;;;;;6171283;23;20398;-77
2022/05/02 06:31:28;;;;;;;5.10;4.10;;;13.20;78.80;;;;;;6175894;23;20464;-78
2022/05/02 06:33:57;;;;;;;4.67;4.20;;;13.30;78.70;;;;;;6175302;23;20382;-77
2022/05/02 06:36:48;;;;;;;4.75;4.35;;;13.40;78.60;;;;;;6174983;23;20869;-79
2022/05/02 06:39:36;;;;;;;3.88;3.58;;;13.40;77.00;;;;;;6175153;23;20386;-77
2022/05/02 06:42:26;;;;;;;4.72;4.15;;;13.50;77.00;;;;;;6174881;23;20441;-78
2022/05/02 06:45:01;;;;;;;4.40;4.00;;;13.60;76.70;;;;;;6174445;23;20377;-79
2022/05/02 06:47:47;;;;;;;5.18;4.78;;;13.80;76.70;;;;;;6153438;23;20393;-80
2022/05/02 06:50:18;;;;;;;5.38;4.95;;;13.80;77.40;;;;;;6150442;23;20874;-78
2022/05/02 06:53:03;;;;;;;6.15;5.55;;;13.90;78.80;;;;;;6175314;23;20429;-80
2022/05/02 06:55:41;;;;;;;5.78;5.28;;;14.10;74.70;;;;;;6163619;23;20374;-80
2022/05/02 06:58:24;;;;;;;5.60;5.00;;;14.20;73.60;;;;;;6151261;23;20382;-80
2022/05/02 07:01:09;;;;;;;5.82;5.22;;;14.50;73.60;;;;;;6176244;23;20402;-80
2022/05/02 07:03:36;;;;;;;5.68;5.18;;;14.60;70.90;;;;;;6163654;23;20392;-79
2022/05/02 07:06:15;;;;;;;5.95;5.45;;;14.70;70.70;;;;;;6153511;23;20952;-79
2022/05/02 07:09:04;;;;;;;5.67;5.17;;;14.70;70.80;;;;;;6138110;23;20796;-77
2022/05/02 07:12:11;;;;;;;5.72;5.18;;;14.80;70.70;;;;;;6174555;23;20854;-77
2022/05/02 07:14:52;;;;;;;5.72;5.22;;;15.10;69.80;;;;;;6150244;23;20751;-80
2022/05/02 07:17:30;;;;;;;6.55;5.88;;;15.10;69.10;;;;;;6175698;23;20437;-80
2022/05/02 07:20:05;;;;;;;6.43;5.93;;;15.20;69.20;;;;;;6175849;23;20386;-80
2022/05/02 07:22:39;;;;;;;6.63;6.03;;;15.20;68.80;;;;;;6175282;23;20771;-81
2022/05/02 07:25:11;;;;;;;7.38;5.82;;;15.20;68.80;;;;;;6175879;23;20457;-78
2022/05/02 07:28:12;;;;;;;6.53;5.93;;;15.50;68.30;;;;;;6175141;23;20433;-78
2022/05/02 07:30:40;;;;;;;7.13;6.43;;;15.70;67.20;;;;;;6174129;23;20367;-80
2022/05/02 07:33:08;;;;;;;6.40;5.90;;;15.90;68.60;;;;;;6176519;23;20724;-80
2022/05/02 07:35:36;;;;;;;6.57;5.97;;;16.00;66.60;;;;;;6176253;23;20386;-80
2022/05/02 07:38:05;;;;;;;6.90;6.20;;;15.90;65.00;;;;;;6176040;23;20689;-80
2022/05/02 07:40:33;;;;;;;6.78;5.90;;;16.10;65.20;;;;;;6175230;23;20378;-77
2022/05/02 07:43:02;;;;;;;6.80;6.20;;;16.10;63.90;;;;;;6174440;23;20728;-77
2022/05/02 07:45:31;;;;;;;6.00;5.40;;;16.10;64.60;;;;;;6174903;23;20370;-80
2022/05/02 07:48:03;;;;;;;6.28;5.72;;;16.20;66.90;;;;;;6176198;23;20378;-79
2022/05/02 07:50:31;;;;;;;5.75;5.22;;;16.70;63.50;;;;;;6176191;23;20461;-80
2022/05/02 07:53:01;;;;;;;6.65;6.00;;;16.50;63.10;;;;;;6175373;23;20377;-79
2022/05/02 07:55:30;;;;;;;5.75;5.10;;;16.70;64.00;;;;;;6174967;23;20378;-78
2022/05/02 07:57:59;;;;;;;6.10;5.53;;;16.90;61.60;;;;;;6152347;23;20378;-80
2022/05/02 08:00:25;;;;;;;5.80;5.20;;;16.90;60.30;;;;;;6151283;23;20378;-77
2022/05/02 08:02:52;;;;;;;5.68;4.95;;;17.00;60.10;;;;;;6155806;23;20853;-79
2022/05/02 08:05:21;;;;;;;5.40;4.90;;;17.10;59.00;;;;;;6150678;23;20374;-77
2022/05/02 08:07:51;;;;;;;5.35;4.95;;;17.10;60.10;;;;;;6151148;23;20376;-79
2022/05/02 08:10:50;;;;;;;4.85;4.45;;;17.20;59.10;;;;;;6175208;23;20378;-80
2022/05/02 08:13:53;;;;;;;5.37;4.87;;;17.50;58.60;;;;;;6176109;23;20374;-77
2022/05/02 08:16:24;;;;;;;5.95;4.95;;;17.90;58.10;;;;;;6174764;23;20382;-80
2022/05/02 08:19:27;;;;;;;4.90;4.50;;;17.80;55.90;;;;;;6175315;23;20440;-77
2022/05/02 08:27:54;;;;;;;5.13;4.72;;;18.00;57.00;;;;;;6152045;23;20723;-79
2022/05/02 08:30:23;;;;;;;5.10;4.70;;;18.10;55.90;;;;;;6151260;23;20386;-80
2022/05/02 08:33:05;;;;;;;4.87;4.47;;;18.20;55.90;;;;;;6174145;23;20517;-79
2022/05/02 08:35:50;;;;;;;5.68;5.18;;;18.30;55.10;;;;;;6174296;23;20401;-80
2022/05/02 08:38:40;;;;;;;6.22;5.72;;;18.40;55.70;;;;;;6175046;23;20378;-77
2022/05/02 08:41:29;;;;;;;5.30;4.80;;;18.50;56.20;;;;;;6174132;23;20446;-80
2022/05/02 08:44:17;;;;;;;5.65;5.15;;;18.50;55.10;;;;;;6150299;23;20376;-78
2022/05/02 08:46:46;;;;;;;;;;;18.80;54.40;;;;;;6175906;23;20530;-80
2022/05/02 08:49:38;;;;;;;;;;;18.50;56.20;;;;;;6134091;23;20200;-78
2022/05/02 08:52:10;;;;;;;;;;;18.30;55.00;;;;;;6126083;23;19944;-78
2022/05/02 08:54:57;;;;;;;;;;;18.20;55.90;;;;;;6152820;23;19924;-79
2022/05/02 08:57:44;;;;;;;;;;;18.50;57.20;;;;;;6153090;23;20289;-78
2022/05/02 09:00:18;;;;;;;;;;;18.70;54.60;;;;;;6150880;23;20333;-79
2022/05/02 09:03:23;;;;;;;;;;;18.80;52.80;;;;;;6126487;23;19951;-78
2022/05/02 09:05:58;;;;;;;;;;;18.80;56.20;;;;;;6153933;23;19963;-79
2022/05/02 09:08:34;;;;;;;;;;;18.70;53.50;;;;;;6151320;23;19920;-78
2022/05/02 09:11:00;;;;;;;;;;;18.60;54.90;;;;;;6126723;23;19922;-79
2022/05/02 09:13:30;;;;;;;;;;;19.00;53.40;;;;;;6153071;23;20246;-77
2022/05/02 09:16:06;;;;;;;;;;;19.00;52.80;;;;;;6127653;23;19920;-77
2022/05/02 09:18:54;;;;;;;;;;;18.80;52.40;;;;;;6152957;23;19916;-79
2022/05/02 09:21:28;;;;;;;;;;;19.00;53.10;;;;;;6127090;23;19920;-78
2022/05/02 09:24:04;;;;;;;;;;;19.00;52.80;;;;;;6152953;23;19920;-78
2022/05/02 09:26:52;;;;;;;;;;;19.40;53.80;;;;;;6127220;23;19916;-80
2022/05/02 09:29:46;;;;;;;;;;;19.60;53.00;;;;;;6151131;23;19916;-77
2022/05/02 09:32:35;;;;;;;;;;;19.40;49.40;;;;;;6175732;23;19967;-77
2022/05/02 09:35:03;;;;;;;;;;;19.20;50.10;;;;;;6165449;23;19921;-77
2022/05/02 09:37:30;;;;;;;;;;;18.70;50.30;;;;;;6151195;23;19916;-80
2022/05/02 09:40:07;;;;;;;;;;;18.90;53.60;;;;;;6153100;23;19917;-79
2022/05/02 09:42:35;;;;;;;;;;;19.20;51.30;;;;;;6127214;23;19948;-78
2022/05/02 09:50:52;;;;;;;;;;;19.80;48.30;;;;;;6125256;23;19923;-80
2022/05/02 09:53:19;;;;;;;;;;;20.20;47.90;;;;;;6147671;23;19944;-77
2022/05/02 09:58:58;;;;;;;;;;;20.70;46.40;;;;;;6122592;23;19928;-79
2022/05/02 10:01:31;;;;;;;;;;;20.80;46.30;;;;;;6132299;23;19921;-80
2022/05/02 10:04:00;;;;;;;;;;;20.70;44.30;;;;;;6154280;23;20011;-80
2022/05/02 10:06:47;;;;;;;;;;;20.60;45.40;;;;;;6152069;23;19920;-79
2022/05/02 10:09:14;;;;;;;;;;;20.50;47.00;;;;;;6135078;23;19924;-80
2022/05/02 10:11:44;;;;;;;;;;;20.60;47.00;;;;;;6178332;23;20352;-80
2022/05/02 10:14:10;;;;;;;;;;;20.80;45.50;;;;;;6123877;23;19983;-78
2022/05/02 10:16:43;;;;;;;;;;;20.60;46.70;;;;;;6145866;23;19920;-80
2022/05/02 10:19:19;;;;;;;;;;;20.60;44.60;;;;;;6152809;23;19948;-80
2022/05/02 10:22:05;;;;;;;;;;;20.80;44.80;;;;;;6154697;23;19917;-80
2022/05/02 10:24:39;;;;;;;;;;;20.90;44.30;;;;;;6153358;23;19936;-78
2022/05/02 10:27:12;;;;;;;;;;;20.50;46.30;;;;;;6129823;23;19917;-77
2022/05/02 10:29:57;;;;;;;;;;;20.60;44.50;;;;;;6161587;23;20334;-78
2022/05/02 10:32:33;;;;;;;;;;;20.70;43.70;;;;;;6175857;23;20247;-79
2022/05/02 10:35:03;;;;;;;;;;;20.70;43.60;;;;;;6149393;23;19980;-80
2022/05/02 10:37:35;;;;;;;;;;;21.00;44.00;;;;;;6147786;23;19966;-79
2022/05/02 10:40:10;;;;;;;;;;;21.20;44.70;;;;;;6128105;23;19917;-77
2022/05/02 10:42:44;;;;;;;;;;;21.30;43.80;;;;;;6147235;23;19967;-79
2022/05/02 10:45:11;;;;;;;;;;;21.40;44.90;;;;;;6173957;23;19916;-78
2022/05/02 10:47:40;;;;;;;;;;;21.50;44.30;;;;;;6179166;23;19920;-80
2022/05/02 10:50:30;;;;;;;;;;;21.50;41.80;;;;;;6132643;23;20231;-80
2022/05/02 10:53:12;;;;;;;;;;;21.10;42.40;;;;;;6163254;23;20250;-80
2022/05/02 10:55:39;;;;;;;;;;;21.50;43.10;;;;;;6152952;23;20276;-80
2022/05/02 10:58:09;;;;;;;;;;;21.60;42.40;;;;;;6133794;23;20325;-78
2022/05/02 11:00:59;;;;;;;;;;;21.80;44.60;;;;;;6123293;23;19917;-80
2022/05/02 11:03:31;;;;;;;;;;;22.20;44.50;;;;;;6167808;23;19917;-78
2022/05/02 11:06:10;;;;;;;;;;;22.30;43.50;;;;;;6154958;23;19924;-78
2022/05/02 11:08:50;;;;;;;;;;;22.30;43.00;;;;;;6152538;23;19920;-78
2022/05/02 11:11:46;;;;;;;;;;;22.00;43.60;;;;;;6133001;23;20326;-80
2022/05/02 11:14:19;;;;;;;;;;;21.30;45.00;;;;;;6123104;23;19916;-80
2022/05/02 11:16:54;;;;;;;;;;;21.40;46.80;;;;;;6152941;23;20338;-78
2022/05/02 11:22:31;;;;;;;;;;;21.80;45.80;;;;;;6152961;23;19920;-80
2022/05/02 11:25:00;;;;;;;;;;;22.00;46.20;;;;;;6154330;23;19916;-78
2022/05/02 11:27:27;;;;;;;;;;;21.70;46.00;;;;;;6135248;23;20364;-78
2022/05/02 11:29:58;;;;;;;;;;;21.80;44.20;;;;;;6179288;23;19971;-80
2022/05/02 11:32:33;;;;;;;;;;;22.00;44.40;;;;;;6160255;23;20342;-78
2022/05/02 11:35:08;;;;;;;;;;;22.20;43.80;;;;;;6172971;23;20297;-79
2022/05/02 11:37:50;;;;;;;;;;;22.10;43.90;;;;;;6158524;23;19917;-78
2022/05/02 11:40:18;;;;;;;;;;;22.00;44.30;;;;;;6123935;23;19944;-78
2022/05/02 11:42:48;;;;;;;;;;;21.60;42.20;;;;;;6147174;23;20338;-80
2022/05/02 11:45:17;;;;;;;;;;;21.20;46.10;;;;;;6143331;23;19921;-80
2022/05/02 11:47:53;;;;;;;;;;;21.70;45.60;;;;;;6166910;23;19967;-80
2022/05/02 11:50:24;;;;;;;;;;;21.50;45.40;;;;;;6153500;23;19970;-79
2022/05/02 11:52:52;;;;;;;;;;;21.70;44.70;;;;;;6131684;23;19941;-78
2022/05/02 11:55:27;;;;;;;;;;;22.00;47.20;;;;;;6147498;23;19948;-79
2022/05/02 11:58:06;;;;;;;;;;;22.40;43.40;;;;;;6153399;23;20290;-80
2022/05/02 12:00:34;;;;;;;;;;;22.80;42.00;;;;;;6127028;23;20338;-80
2022/05/02 12:03:09;;;;;;;;;;;22.70;43.00;;;;;;6152012;23;20543;-80
2022/05/02 12:05:39;;;;;;;;;;;22.70;42.70;;;;;;6151735;23;19920;-80
2022/05/02 12:08:07;;;;;;;;;;;22.90;42.40;;;;;;6129275;23;19921;-79
2022/05/02 12:10:38;;;;;;;;;;;23.10;41.00;;;;;;6126620;23;19921;-80
2022/05/02 12:13:06;;;;;;;;;;;23.20;41.00;;;;;;6151466;23;20346;-79
2022/05/02 12:15:34;;;;;;;;;;;23.40;41.80;;;;;;6126959;23;20250;-78
2022/05/02 12:18:06;;;;;;;;;;;23.60;40.40;;;;;;6152715;23;19920;-79
2022/05/02 12:20:36;;;;;;;;;;;23.30;41.00;;;;;;6127126;23;19928;-80
2022/05/02 12:23:03;;;;;;;;;;;23.20;40.00;;;;;;6152191;23;19920;-79
2022/05/02 12:25:31;;;;;;;;;;;22.50;41.00;;;;;;6125516;23;19924;-79
2022/05/02 12:28:02;;;;;;;;;;;22.50;43.10;;;;;;6176628;23;19927;-79
2022/05/02 12:30:29;;;;;;;;;;;23.20;42.50;;;;;;6127043;23;19928;-78
2022/05/02 12:33:00;;;;;;;;;;;23.20;40.30;;;;;;6176729;23;19920;-79
2022/05/02 12:35:40;;;;;;;;;;;22.80;40.90;;;;;;6126908;23;19984;-81
2022/05/02 12:38:11;;;;;;;;;;;22.30;40.30;;;;;;6153587;23;19921;-79
2022/05/02 12:40:39;;;;;;;;;;;22.00;40.30;;;;;;6126499;23;20249;-80
2022/05/02 12:43:10;;;;;;;;;;;22.10;39.60;;;;;;6177402;23;19971;-79
2022/05/02 12:45:47;;;;;;;;;;;22.50;40.50;;;;;;6126681;23;19924;-79
2022/05/02 12:48:21;;;;;;;;;;;23.00;39.80;;;;;;6153747;23;20259;-81
2022/05/02 12:50:49;;;;;;;;;;;23.40;40.50;;;;;;6139690;23;19925;-79
2022/05/02 12:56:06;;;;;;;;;;;23.40;39.20;;;;;;6135756;23;19999;-79
2022/05/02 13:01:19;;;;;;;;;;;22.90;38.70;;;;;;6123366;23;19972;-79
2022/05/02 13:03:52;;;;;;;;;;;22.90;40.80;;;;;;6170067;23;19920;-79
2022/05/02 13:06:19;;;;;;;;;;;23.10;40.20;;;;;;6151607;23;19921;-80
2022/05/02 13:08:46;;;;;;;;;;;23.20;40.20;;;;;;6129586;23;19976;-79
2022/05/02 13:11:21;;;;;;;;;;;23.40;41.10;;;;;;6173026;23;20051;-78
2022/05/02 13:13:56;;;;;;;;;;;23.80;39.20;;;;;;6140240;23;20362;-79
2022/05/02 13:16:27;;;;;;;;;;;24.00;38.30;;;;;;6145978;23;19972;-79
2022/05/02 13:18:55;;;;;;;;;;;24.30;38.90;;;;;;6128917;23;19952;-80
2022/05/02 13:21:22;;;;;;;;;;;24.40;37.40;;;;;;6151201;23;19975;-80
2022/05/02 13:23:56;;;;;;;;;;;24.40;37.00;;;;;;6152019;23;19925;-78
2022/05/02 13:26:26;;;;;;;;;;;24.50;37.80;;;;;;6152045;23;19924;-81
2022/05/02 13:29:13;;;;;;;;;;;23.70;36.50;;;;;;6152255;23;19943;-79
2022/05/02 13:31:50;;;;;;;;;;;23.20;38.10;;;;;;6151607;23;19928;-78
2022/05/02 13:34:17;;;;;;;;;;;23.80;39.20;;;;;;6152516;23;20313;-81
2022/05/02 13:36:45;;;;;;;;;;;24.60;36.40;;;;;;6151710;23;20235;-79
2022/05/02 13:39:18;;;;;;;;;;;25.00;36.90;;;;;;6128160;23;19988;-80
2022/05/02 13:41:50;;;;;;;;;;;24.80;35.00;;;;;;6158604;23;19928;-81
2022/05/02 13:44:31;;;;;;;;;;;24.60;35.90;;;;;;6123952;23;19927;-79
2022/05/02 13:47:07;;;;;;;;;;;24.70;36.10;;;;;;6146393;23;20003;-80
2022/05/02 13:49:34;;;;;;;;;;;24.90;37.20;;;;;;6146886;23;20359;-79
2022/05/02 13:52:07;;;;;;;;;;;24.70;36.20;;;;;;6152254;23;19920;-81
2022/05/02 13:54:35;;;;;;;;;;;24.60;35.90;;;;;;6128289;23;19980;-79
2022/05/02 13:57:04;;;;;;;;;;;23.10;38.10;;;;;;6154011;23;19920;-78
2022/05/02 13:59:45;;;;;;;;;;;23.20;38.00;;;;;;6129803;23;19921;-80
2022/05/02 14:02:27;;;;;;;;;;;22.50;38.50;;;;;;6177631;23;19940;-80
2022/05/02 14:04:58;;;;;;;;;;;22.60;39.10;;;;;;6152753;23;19924;-79
2022/05/02 14:07:25;;;;;;;;;;;23.10;37.40;;;;;;6133443;23;19925;-80
2022/05/02 14:09:55;;;;;;;;;;;23.40;37.50;;;;;;6177136;23;19925;-79
2022/05/02 14:12:23;;;;;;;;;;;23.80;38.10;;;;;;6147343;23;20302;-80
2022/05/02 14:14:56;;;;;;;;;;;24.40;36.40;;;;;;6147772;23;20306;-79